Time;durP1;ratioP1;P1;durP2;ratioP2;P2;SDS_P1;SDS_P2;PMS_P1;PMS_P2;Temp;Humidity;BMP_temperature;BMP_pressure;BME280_temperature;BME280_humidity;BME280_pressure;Samples;Min_cycle;Max_cycle;Signal;HPM_P1;HPM_P2
2022/01/29 00:01:32;;;;;;;51.90;25.63;;;6.30;99.90;;;;;;5122115;28;20053;-76
2022/01/29 00:03:58;;;;;;;40.78;24.75;;;6.30;99.90;;;;;;5124035;27;20063;-75
2022/01/29 00:06:25;;;;;;;40.53;24.17;;;6.30;99.90;;;;;;5137455;27;20477;-76
2022/01/29 00:08:53;;;;;;;45.15;24.02;;;6.30;99.90;;;;;;5117554;28;20437;-76
2022/01/29 00:11:26;;;;;;;47.85;24.55;;;6.30;99.90;;;;;;5134441;27;20059;-76
2022/01/29 00:13:52;;;;;;;40.45;23.67;;;6.30;99.90;;;;;;5137120;27;20043;-75
2022/01/29 00:16:19;;;;;;;52.55;26.77;;;6.30;99.90;;;;;;5126331;27;20050;-76
2022/01/29 00:18:46;;;;;;;43.42;23.45;;;6.40;99.90;;;;;;5120887;27;20058;-77
2022/01/29 00:21:12;;;;;;;42.60;22.85;;;6.40;99.90;;;;;;5132064;27;20042;-77
2022/01/29 00:23:39;;;;;;;45.10;26.33;;;6.40;99.90;;;;;;5122888;27;20417;-77
2022/01/29 00:26:06;;;;;;;42.63;23.92;;;6.40;99.90;;;;;;5123406;27;20047;-76
2022/01/29 00:28:34;;;;;;;48.20;25.85;;;6.50;99.90;;;;;;5118380;27;20122;-76
2022/01/29 00:31:02;;;;;;;49.13;26.50;;;6.50;99.90;;;;;;5154726;27;20038;-76
2022/01/29 00:33:29;;;;;;;50.88;27.05;;;6.50;99.90;;;;;;5123269;27;20133;-77
2022/01/29 00:35:55;;;;;;;48.47;29.80;;;6.40;99.90;;;;;;5119681;27;20154;-76
2022/01/29 00:38:22;;;;;;;47.85;27.65;;;6.50;99.90;;;;;;5122445;27;20051;-77
2022/01/29 00:40:48;;;;;;;46.33;25.25;;;6.40;99.90;;;;;;5130988;27;20066;-77
2022/01/29 00:43:15;;;;;;;54.00;27.17;;;6.40;99.90;;;;;;5128713;27;20062;-75
2022/01/29 00:45:42;;;;;;;39.00;24.75;;;6.40;99.90;;;;;;5119690;27;20132;-76
2022/01/29 00:48:08;;;;;;;51.83;27.40;;;6.40;99.90;;;;;;5117733;27;20047;-77
2022/01/29 00:50:35;;;;;;;51.35;26.50;;;6.40;99.90;;;;;;5138477;27;20046;-78
2022/01/29 00:53:01;;;;;;;45.55;24.65;;;6.40;99.90;;;;;;5120158;27;20043;-76
2022/01/29 00:55:28;;;;;;;48.97;26.60;;;6.30;99.90;;;;;;5127485;27;20256;-76
2022/01/29 00:57:54;;;;;;;56.33;25.88;;;6.40;99.90;;;;;;5148531;27;20057;-76
2022/01/29 01:00:21;;;;;;;45.78;27.13;;;6.30;99.90;;;;;;5118295;27;20039;-78
2022/01/29 01:02:47;;;;;;;48.75;26.92;;;6.30;99.90;;;;;;5135088;27;20058;-77
2022/01/29 01:05:14;;;;;;;36.20;25.35;;;6.30;99.90;;;;;;5124065;27;20043;-76
2022/01/29 01:07:41;;;;;;;47.58;26.88;;;6.30;99.90;;;;;;5129836;27;20050;-77
2022/01/29 01:10:08;;;;;;;64.90;28.73;;;6.30;99.90;;;;;;5117784;27;20075;-77
2022/01/29 01:12:34;;;;;;;50.97;27.13;;;6.30;99.90;;;;;;5116464;27;20047;-79
2022/01/29 01:15:01;;;;;;;42.95;25.67;;;6.30;99.90;;;;;;5122034;27;20062;-77
2022/01/29 01:17:27;;;;;;;38.97;24.25;;;6.30;99.90;;;;;;5117912;27;20043;-76
2022/01/29 01:19:54;;;;;;;48.55;27.80;;;6.30;99.90;;;;;;5125268;27;20047;-76
2022/01/29 01:22:20;;;;;;;43.70;24.30;;;6.30;99.90;;;;;;5139576;27;20049;-77
2022/01/29 01:24:48;;;;;;;45.55;24.38;;;6.30;99.90;;;;;;5120691;27;20043;-77
2022/01/29 01:27:14;;;;;;;39.35;23.13;;;6.30;99.90;;;;;;5120318;27;20052;-78
2022/01/29 01:29:41;;;;;;;40.47;24.70;;;6.30;99.90;;;;;;5129414;27;20056;-77
2022/01/29 01:32:10;;;;;;;42.45;25.75;;;6.40;99.90;;;;;;5123682;27;20046;-77
2022/01/29 01:34:38;;;;;;;38.28;25.65;;;6.40;99.90;;;;;;5117794;27;20079;-77
2022/01/29 01:37:09;;;;;;;35.53;26.73;;;6.40;99.90;;;;;;5129495;27;20051;-76
2022/01/29 01:39:38;;;;;;;47.13;26.92;;;6.40;99.90;;;;;;5138828;27;20435;-78
2022/01/29 01:42:06;;;;;;;47.47;29.75;;;6.40;99.90;;;;;;5119427;27;20051;-77
2022/01/29 01:44:32;;;;;;;45.88;29.60;;;6.40;99.90;;;;;;5119710;27;20055;-76
2022/01/29 01:46:59;;;;;;;50.70;32.92;;;6.50;99.90;;;;;;5128320;27;20317;-75
2022/01/29 01:49:26;;;;;;;52.08;30.95;;;6.50;99.90;;;;;;5124962;27;20055;-76
2022/01/29 01:51:52;;;;;;;50.90;33.60;;;6.60;99.90;;;;;;5127450;27;20043;-76
2022/01/29 01:54:19;;;;;;;45.05;30.10;;;6.50;99.90;;;;;;5138195;27;20058;-75
2022/01/29 01:56:45;;;;;;;52.85;31.02;;;6.60;99.90;;;;;;5119827;27;20058;-78
2022/01/29 01:59:12;;;;;;;44.92;28.80;;;6.60;99.90;;;;;;5128316;27;20042;-75
2022/01/29 02:01:39;;;;;;;48.45;27.90;;;6.70;99.90;;;;;;5119384;27;20094;-78
2022/01/29 02:04:05;;;;;;;47.17;26.90;;;6.70;99.90;;;;;;5128491;27;20054;-77
2022/01/29 02:06:32;;;;;;;46.38;25.73;;;6.70;99.90;;;;;;5120258;27;20054;-77
2022/01/29 02:09:00;;;;;;;35.45;22.40;;;6.80;99.90;;;;;;5117925;27;20047;-77
2022/01/29 02:11:26;;;;;;;43.53;24.45;;;6.80;99.90;;;;;;5123049;27;20681;-77
2022/01/29 02:13:54;;;;;;;42.42;25.00;;;6.90;99.90;;;;;;5129454;27;20046;-76
2022/01/29 02:16:21;;;;;;;37.05;22.67;;;6.90;99.90;;;;;;5124476;27;20051;-77
2022/01/29 02:18:47;;;;;;;47.63;23.08;;;7.00;99.90;;;;;;5128702;27;20047;-77
2022/01/29 02:21:14;;;;;;;36.35;23.13;;;7.00;99.90;;;;;;5128118;27;20046;-75
2022/01/29 02:23:40;;;;;;;39.42;23.05;;;7.00;99.90;;;;;;5126584;27;20061;-77
2022/01/29 02:26:07;;;;;;;37.90;22.48;;;7.00;99.90;;;;;;5117346;27;20047;-75
2022/01/29 02:28:33;;;;;;;54.55;22.90;;;7.00;99.90;;;;;;5146170;27;20486;-77
2022/01/29 02:31:02;;;;;;;35.35;23.15;;;7.10;99.90;;;;;;5134243;27;20051;-75
2022/01/29 02:33:29;;;;;;;42.30;24.02;;;7.10;99.90;;;;;;5149959;27;20104;-77
2022/01/29 02:35:55;;;;;;;50.97;23.80;;;7.20;99.90;;;;;;5142000;27;20122;-77
2022/01/29 02:38:23;;;;;;;41.35;21.95;;;7.10;99.90;;;;;;5121094;27;20129;-75
2022/01/29 02:40:51;;;;;;;37.03;21.83;;;7.10;99.90;;;;;;5136682;27;20054;-76
2022/01/29 02:43:18;;;;;;;40.65;21.88;;;7.10;99.90;;;;;;5117487;27;20054;-76
2022/01/29 02:45:45;;;;;;;43.92;24.52;;;7.20;99.90;;;;;;5148638;27;20054;-76
2022/01/29 02:48:12;;;;;;;44.53;24.10;;;7.30;99.90;;;;;;5142358;27;20047;-76
2022/01/29 02:50:38;;;;;;;39.72;21.30;;;7.30;99.90;;;;;;5137760;27;20051;-78
2022/01/29 02:53:05;;;;;;;45.28;23.45;;;7.30;99.90;;;;;;5118239;27;20043;-77
2022/01/29 02:55:31;;;;;;;41.17;23.83;;;7.30;99.90;;;;;;5115282;27;20052;-76
2022/01/29 02:57:58;;;;;;;41.67;23.80;;;7.30;99.90;;;;;;5126008;27;20052;-77
2022/01/29 03:00:24;;;;;;;40.33;23.20;;;7.30;99.90;;;;;;5124278;27;20043;-75
2022/01/29 03:02:51;;;;;;;46.50;22.35;;;7.30;99.90;;;;;;5128912;27;20058;-77
2022/01/29 03:05:18;;;;;;;37.75;21.58;;;7.30;99.90;;;;;;5125359;27;20044;-75
2022/01/29 03:07:45;;;;;;;50.90;22.88;;;7.30;99.90;;;;;;5117283;27;20039;-75
2022/01/29 03:10:12;;;;;;;52.45;21.92;;;7.30;99.90;;;;;;5118320;27;20066;-75
2022/01/29 03:12:40;;;;;;;52.47;23.75;;;7.40;99.90;;;;;;5120177;27;20054;-77
2022/01/29 03:15:06;;;;;;;41.25;22.17;;;7.40;99.90;;;;;;5119002;27;20083;-75
2022/01/29 03:17:33;;;;;;;44.60;22.27;;;7.40;99.90;;;;;;5112335;27;20043;-77
2022/01/29 03:19:59;;;;;;;40.47;21.98;;;7.40;99.90;;;;;;5119810;27;20058;-77
2022/01/29 03:22:26;;;;;;;47.03;24.25;;;7.30;99.90;;;;;;5122063;27;20062;-76
2022/01/29 03:24:52;;;;;;;49.78;22.75;;;7.40;99.90;;;;;;5129215;28;20046;-77
2022/01/29 03:27:19;;;;;;;41.65;22.08;;;7.40;99.90;;;;;;5132395;28;20043;-75
2022/01/29 03:29:45;;;;;;;45.65;22.33;;;7.40;99.90;;;;;;5130485;28;20051;-77
2022/01/29 03:32:12;;;;;;;34.53;21.58;;;7.40;99.90;;;;;;5117261;28;20074;-77
2022/01/29 03:34:38;;;;;;;49.65;23.67;;;7.40;99.90;;;;;;5112745;28;20406;-77
2022/01/29 03:37:05;;;;;;;52.47;21.65;;;7.40;99.90;;;;;;5116034;28;20047;-77
2022/01/29 03:39:35;;;;;;;51.92;21.52;;;7.40;99.90;;;;;;5120779;28;20055;-77
2022/01/29 03:42:05;;;;;;;45.22;21.45;;;7.40;99.90;;;;;;5113525;28;20139;-77
2022/01/29 03:44:32;;;;;;;36.17;20.88;;;7.50;99.90;;;;;;5112064;28;20063;-77
2022/01/29 03:46:58;;;;;;;40.85;23.08;;;7.50;99.90;;;;;;5117845;27;20075;-77
2022/01/29 03:49:25;;;;;;;46.10;21.17;;;7.50;99.90;;;;;;5117119;27;20051;-77
2022/01/29 03:51:51;;;;;;;46.55;21.50;;;7.50;99.90;;;;;;5116473;27;20051;-77
2022/01/29 03:54:18;;;;;;;50.17;23.15;;;7.50;99.90;;;;;;5122432;27;20074;-77
2022/01/29 03:56:44;;;;;;;42.95;23.05;;;7.50;99.90;;;;;;5116570;27;20044;-78
2022/01/29 03:59:11;;;;;;;40.28;22.25;;;7.60;99.90;;;;;;5121073;27;20479;-77
2022/01/29 04:01:37;;;;;;;38.95;20.20;;;7.50;99.90;;;;;;5117799;27;20475;-75
2022/01/29 04:04:04;;;;;;;34.70;19.05;;;7.50;99.90;;;;;;5126974;27;20483;-77
2022/01/29 04:06:31;;;;;;;35.22;22.17;;;7.60;99.90;;;;;;5120253;27;20050;-75
2022/01/29 04:08:58;;;;;;;47.30;19.85;;;7.60;99.90;;;;;;5114176;28;20060;-78
2022/01/29 04:11:25;;;;;;;36.85;19.63;;;7.60;99.90;;;;;;5120172;27;20071;-77
2022/01/29 04:13:52;;;;;;;38.35;21.92;;;7.60;99.90;;;;;;5115656;27;20059;-77
2022/01/29 04:16:18;;;;;;;42.92;20.75;;;7.60;99.90;;;;;;5121239;27;20039;-76
2022/01/29 04:18:45;;;;;;;40.13;19.02;;;7.60;99.90;;;;;;5116463;27;20059;-77
2022/01/29 04:21:11;;;;;;;42.90;21.00;;;7.70;99.90;;;;;;5121504;27;20051;-76
2022/01/29 04:23:38;;;;;;;32.92;19.92;;;7.70;99.90;;;;;;5127496;27;20043;-76
2022/01/29 04:26:05;;;;;;;45.05;19.15;;;7.70;99.90;;;;;;5125555;27;20054;-77
2022/01/29 04:28:36;;;;;;;33.05;17.48;;;7.70;99.90;;;;;;5134134;27;20047;-77
2022/01/29 04:31:05;;;;;;;39.00;20.55;;;7.60;99.90;;;;;;5115510;27;20047;-77
2022/01/29 04:33:31;;;;;;;40.25;18.65;;;7.70;99.90;;;;;;5129728;27;20047;-77
2022/01/29 04:35:58;;;;;;;26.88;16.73;;;7.70;99.90;;;;;;5119346;27;20055;-77
2022/01/29 04:38:24;;;;;;;36.42;16.75;;;7.70;99.90;;;;;;5126358;27;20050;-77
2022/01/29 04:40:51;;;;;;;30.25;18.05;;;7.70;99.90;;;;;;5124208;27;20074;-79
2022/01/29 04:43:17;;;;;;;35.08;17.88;;;7.70;99.90;;;;;;5126434;27;20051;-77
2022/01/29 04:45:44;;;;;;;32.63;18.42;;;7.80;99.90;;;;;;5130938;27;20059;-76
2022/01/29 04:48:11;;;;;;;34.75;17.63;;;7.80;99.90;;;;;;5126976;27;20047;-77
2022/01/29 04:50:37;;;;;;;32.15;17.38;;;7.80;99.90;;;;;;5127922;27;20050;-76
2022/01/29 04:53:04;;;;;;;29.15;19.17;;;7.70;99.90;;;;;;5129676;27;20043;-75
2022/01/29 04:55:30;;;;;;;32.97;18.20;;;7.70;99.90;;;;;;5125508;27;20059;-77
2022/01/29 04:57:57;;;;;;;29.70;17.92;;;7.80;99.90;;;;;;5113068;27;20047;-77
2022/01/29 05:00:23;;;;;;;30.23;17.95;;;7.90;99.90;;;;;;5114118;27;20048;-76
2022/01/29 05:02:50;;;;;;;32.85;18.08;;;7.80;99.90;;;;;;5124258;27;20494;-79
2022/01/29 05:05:17;;;;;;;33.33;17.02;;;7.80;99.90;;;;;;5114724;27;20130;-77
2022/01/29 05:07:43;;;;;;;29.80;18.70;;;7.80;99.90;;;;;;5125597;27;20469;-76
2022/01/29 05:10:10;;;;;;;30.33;18.50;;;7.80;99.90;;;;;;5116914;27;20549;-77
2022/01/29 05:12:45;;;;;;;23.92;16.27;;;7.90;99.90;;;;;;5118724;27;20843;-78
2022/01/29 05:15:18;;;;;;;32.47;18.38;;;7.90;99.90;;;;;;5128635;27;20304;-77
2022/01/29 05:28:41;;;;;;;26.77;17.00;;;7.90;99.90;;;;;;5128172;27;20051;-77
2022/01/29 05:31:08;;;;;;;39.92;17.75;;;7.90;99.90;;;;;;5120425;27;20039;-77
2022/01/29 05:33:34;;;;;;;34.47;18.08;;;7.90;99.90;;;;;;5119010;27;20044;-76
2022/01/29 05:36:01;;;;;;;26.35;16.10;;;7.90;99.90;;;;;;5119186;27;20054;-77
2022/01/29 05:38:28;;;;;;;31.25;17.08;;;7.90;99.90;;;;;;5127306;27;20050;-77
2022/01/29 05:40:54;;;;;;;32.65;17.85;;;7.90;99.90;;;;;;5133147;27;20055;-79
2022/01/29 05:43:21;;;;;;;33.40;18.17;;;7.90;99.90;;;;;;5116928;27;20479;-76
2022/01/29 05:45:47;;;;;;;29.85;16.88;;;8.00;99.90;;;;;;5124682;27;20043;-76
2022/01/29 05:48:14;;;;;;;30.27;16.90;;;8.00;99.90;;;;;;5123274;27;20048;-77
2022/01/29 05:50:40;;;;;;;28.73;17.70;;;8.00;99.90;;;;;;5121656;27;20055;-77
2022/01/29 05:53:07;;;;;;;33.22;17.98;;;8.10;99.90;;;;;;5117183;27;20059;-76
2022/01/29 05:55:33;;;;;;;22.25;15.10;;;8.10;99.90;;;;;;5114230;27;20473;-77
2022/01/29 05:58:00;;;;;;;28.13;15.65;;;8.10;99.90;;;;;;5120827;27;20043;-77
2022/01/29 06:00:26;;;;;;;31.30;16.88;;;8.10;99.90;;;;;;5119311;27;20043;-77
2022/01/29 06:02:53;;;;;;;27.55;15.48;;;8.10;99.90;;;;;;5123724;27;20051;-79
2022/01/29 06:05:20;;;;;;;26.35;15.52;;;8.20;99.90;;;;;;5114988;27;20051;-76
2022/01/29 06:07:46;;;;;;;27.42;16.70;;;8.10;99.90;;;;;;5117698;27;20055;-76
2022/01/29 06:10:13;;;;;;;26.00;15.30;;;8.10;99.90;;;;;;5120676;27;20060;-77
2022/01/29 06:12:39;;;;;;;23.48;15.32;;;8.20;99.90;;;;;;5124150;27;20054;-77
2022/01/29 06:15:06;;;;;;;27.58;17.10;;;8.20;99.90;;;;;;5114923;27;20052;-77
2022/01/29 06:17:32;;;;;;;25.35;16.98;;;8.20;99.90;;;;;;5114979;27;20073;-76
2022/01/29 06:19:59;;;;;;;22.85;15.85;;;8.10;99.90;;;;;;5112688;27;20055;-78
2022/01/29 06:22:26;;;;;;;25.40;16.80;;;8.10;99.90;;;;;;5119163;27;20047;-77
2022/01/29 06:24:53;;;;;;;24.42;16.38;;;8.10;99.90;;;;;;5129459;27;20096;-76
2022/01/29 06:27:19;;;;;;;28.02;16.50;;;8.20;99.90;;;;;;5129162;27;20121;-76
2022/01/29 06:29:46;;;;;;;33.88;17.27;;;8.10;99.90;;;;;;5125054;27;20062;-77
2022/01/29 06:32:12;;;;;;;27.05;16.65;;;8.20;99.90;;;;;;5121615;27;20062;-78
2022/01/29 06:34:39;;;;;;;28.23;15.80;;;8.20;99.90;;;;;;5116372;27;20043;-77
2022/01/29 06:37:05;;;;;;;28.08;16.88;;;8.20;99.90;;;;;;5116281;27;20051;-76
2022/01/29 06:39:32;;;;;;;31.35;17.08;;;8.20;99.90;;;;;;5128272;27;20051;-79
2022/01/29 06:41:58;;;;;;;32.13;17.58;;;8.10;99.90;;;;;;5128054;27;20048;-79
2022/01/29 06:44:25;;;;;;;25.73;16.45;;;8.20;99.90;;;;;;5129762;27;20051;-78
2022/01/29 06:46:51;;;;;;;38.22;18.00;;;8.20;99.90;;;;;;5114710;27;20047;-77
2022/01/29 06:49:18;;;;;;;27.27;17.25;;;8.20;99.90;;;;;;5121729;27;20036;-77
2022/01/29 06:51:45;;;;;;;31.38;17.50;;;8.20;99.90;;;;;;5116460;27;20048;-78
2022/01/29 06:54:11;;;;;;;26.30;15.32;;;8.20;99.90;;;;;;5111840;27;20048;-77
2022/01/29 06:56:38;;;;;;;27.35;16.98;;;8.20;99.90;;;;;;5124815;27;20043;-77
2022/01/29 06:59:04;;;;;;;23.00;14.77;;;8.20;99.90;;;;;;5115290;27;20406;-77
2022/01/29 07:01:31;;;;;;;29.73;14.43;;;8.30;99.90;;;;;;5111565;28;20384;-77
2022/01/29 07:03:57;;;;;;;36.97;14.98;;;8.30;99.90;;;;;;5124999;27;20061;-78
2022/01/29 07:06:24;;;;;;;31.10;16.52;;;8.30;99.90;;;;;;5120034;27;20059;-77
2022/01/29 07:08:50;;;;;;;25.42;15.07;;;8.30;99.90;;;;;;5123001;27;20051;-78
2022/01/29 07:11:20;;;;;;;22.15;15.30;;;8.30;99.90;;;;;;5121654;27;20452;-78
2022/01/29 07:13:46;;;;;;;22.45;14.98;;;8.30;99.90;;;;;;5120156;27;20509;-78
2022/01/29 07:16:13;;;;;;;17.23;13.32;;;8.30;99.90;;;;;;5123282;27;20063;-79
2022/01/29 07:18:39;;;;;;;22.70;14.27;;;8.30;99.90;;;;;;5113255;27;21215;-78
2022/01/29 07:21:06;;;;;;;23.48;14.05;;;8.40;99.90;;;;;;5122484;27;20047;-78
2022/01/29 07:23:32;;;;;;;22.15;13.88;;;8.40;99.90;;;;;;5120683;27;20522;-78
2022/01/29 07:25:59;;;;;;;18.02;13.25;;;8.40;99.90;;;;;;5112378;28;20051;-78
2022/01/29 07:28:25;;;;;;;33.42;15.25;;;8.30;99.90;;;;;;5119470;28;20040;-78
2022/01/29 07:30:52;;;;;;;23.38;12.95;;;8.40;99.90;;;;;;5123717;28;20054;-78
2022/01/29 07:33:18;;;;;;;23.60;13.60;;;8.40;99.90;;;;;;5127551;28;20461;-78
2022/01/29 07:35:45;;;;;;;21.33;12.48;;;8.40;99.90;;;;;;5124494;28;20420;-78
2022/01/29 07:38:13;;;;;;;24.08;13.20;;;8.40;99.90;;;;;;5121723;28;20694;-79
2022/01/29 07:40:39;;;;;;;22.45;13.77;;;8.40;99.90;;;;;;5124626;28;20050;-76
2022/01/29 07:43:06;;;;;;;25.60;13.35;;;8.30;99.90;;;;;;5117456;28;20475;-78
2022/01/29 07:45:32;;;;;;;21.20;12.82;;;8.30;99.90;;;;;;5125484;28;20402;-78
2022/01/29 07:47:59;;;;;;;18.02;11.85;;;8.40;99.90;;;;;;5124565;28;20104;-78
2022/01/29 07:50:25;;;;;;;21.67;12.13;;;8.40;99.90;;;;;;5129137;28;20058;-77
2022/01/29 07:52:54;;;;;;;19.80;12.88;;;8.40;99.90;;;;;;5126656;28;20051;-78
2022/01/29 07:55:21;;;;;;;23.33;12.27;;;8.40;99.90;;;;;;5126751;28;20066;-78
2022/01/29 07:57:47;;;;;;;20.52;12.88;;;8.40;99.90;;;;;;5122338;28;20043;-78
2022/01/29 08:00:14;;;;;;;33.80;13.63;;;8.40;99.90;;;;;;5125844;28;20062;-76
2022/01/29 08:02:40;;;;;;;20.92;12.07;;;8.40;99.90;;;;;;5119060;28;20495;-78
2022/01/29 08:05:07;;;;;;;18.25;11.85;;;8.40;99.90;;;;;;5132063;27;20493;-78
2022/01/29 08:07:33;;;;;;;20.58;12.20;;;8.40;99.90;;;;;;5141451;27;20050;-78
2022/01/29 08:10:00;;;;;;;17.42;11.80;;;8.40;99.90;;;;;;5130893;27;20051;-79
2022/01/29 08:12:26;;;;;;;23.50;13.73;;;8.30;99.90;;;;;;5123029;27;20053;-78
2022/01/29 08:14:53;;;;;;;17.75;10.90;;;8.30;99.90;;;;;;5128025;27;20204;-78
2022/01/29 08:17:19;;;;;;;22.95;13.25;;;8.30;99.90;;;;;;5128563;27;20070;-79
2022/01/29 08:19:48;;;;;;;17.52;11.35;;;8.30;99.90;;;;;;5129465;27;20043;-78
2022/01/29 08:22:15;;;;;;;21.98;11.60;;;8.30;99.90;;;;;;5128884;27;20126;-78
2022/01/29 08:24:41;;;;;;;18.33;11.15;;;8.30;99.90;;;;;;5131126;27;20046;-78
2022/01/29 08:27:08;;;;;;;21.48;12.43;;;8.20;99.90;;;;;;5128323;27;20034;-80
2022/01/29 08:29:34;;;;;;;20.05;11.85;;;8.30;99.90;;;;;;5131132;27;20051;-78
2022/01/29 08:32:01;;;;;;;24.20;12.35;;;8.30;99.90;;;;;;5128323;27;20043;-78
2022/01/29 08:34:27;;;;;;;16.35;11.45;;;8.20;99.90;;;;;;5131436;27;20047;-78
2022/01/29 08:36:54;;;;;;;17.40;12.73;;;8.30;99.90;;;;;;5133475;27;20057;-78
2022/01/29 08:39:20;;;;;;;24.85;11.98;;;8.20;99.90;;;;;;5130074;27;20136;-79
2022/01/29 08:41:47;;;;;;;25.67;12.05;;;8.30;99.90;;;;;;5133669;27;20051;-78
2022/01/29 08:44:13;;;;;;;21.95;11.43;;;8.30;99.90;;;;;;5133627;27;20054;-78
2022/01/29 08:46:40;;;;;;;30.30;14.45;;;8.30;99.90;;;;;;5133566;27;20058;-78
2022/01/29 08:49:07;;;;;;;22.83;14.15;;;8.40;99.90;;;;;;5130940;27;20054;-80
2022/01/29 08:51:33;;;;;;;24.75;12.35;;;8.40;99.90;;;;;;5130976;27;20049;-76
2022/01/29 08:54:00;;;;;;;34.25;13.13;;;8.40;99.90;;;;;;5145848;27;20378;-78
2022/01/29 08:56:26;;;;;;;26.40;11.85;;;8.40;99.90;;;;;;5130362;27;20047;-78
2022/01/29 08:58:53;;;;;;;20.08;11.43;;;8.40;99.90;;;;;;5134072;27;20046;-78
2022/01/29 09:01:19;;;;;;;24.52;11.98;;;8.50;99.90;;;;;;5133237;27;20046;-79
2022/01/29 09:03:46;;;;;;;15.77;11.02;;;8.50;99.90;;;;;;5130955;27;20047;-77
2022/01/29 09:06:12;;;;;;;22.77;11.30;;;8.50;99.90;;;;;;5133914;27;20047;-78
2022/01/29 09:08:40;;;;;;;21.35;11.60;;;8.60;99.90;;;;;;5150544;27;20035;-78
2022/01/29 09:11:06;;;;;;;22.23;12.00;;;8.60;99.90;;;;;;5132209;27;20118;-76
2022/01/29 09:13:33;;;;;;;23.98;11.55;;;8.60;99.90;;;;;;5132185;27;20418;-78
2022/01/29 09:15:59;;;;;;;25.05;10.43;;;8.70;99.90;;;;;;5131189;27;20046;-78
2022/01/29 09:18:26;;;;;;;24.85;10.73;;;8.70;99.90;;;;;;5133650;27;20465;-78
2022/01/29 09:20:53;;;;;;;20.38;12.00;;;8.70;99.90;;;;;;5151745;27;20095;-77
2022/01/29 09:23:19;;;;;;;16.10;10.48;;;8.70;99.90;;;;;;5132286;27;20050;-78
2022/01/29 09:25:46;;;;;;;14.60;9.15;;;8.80;99.90;;;;;;5130204;27;20042;-78
2022/01/29 09:28:12;;;;;;;18.50;9.40;;;8.80;99.90;;;;;;5133063;27;20050;-80
2022/01/29 09:30:39;;;;;;;14.55;8.93;;;8.80;99.90;;;;;;5151565;27;20402;-78
2022/01/29 09:33:05;;;;;;;15.68;8.35;;;8.80;99.90;;;;;;5129086;27;20520;-78
2022/01/29 09:35:32;;;;;;;16.27;9.40;;;8.90;99.90;;;;;;5129671;27;20606;-78
2022/01/29 09:37:58;;;;;;;13.02;7.45;;;9.00;99.90;;;;;;5129463;27;20042;-78
2022/01/29 09:40:25;;;;;;;17.48;7.95;;;9.00;99.90;;;;;;5129683;27;20038;-77
2022/01/29 09:42:52;;;;;;;16.00;8.38;;;9.00;99.90;;;;;;5150125;27;20054;-77
2022/01/29 09:45:19;;;;;;;14.18;7.35;;;9.00;99.90;;;;;;5131697;27;20047;-78
2022/01/29 09:47:45;;;;;;;8.27;5.93;;;9.00;99.90;;;;;;5128019;27;20049;-78
2022/01/29 09:50:12;;;;;;;11.30;6.18;;;9.10;99.90;;;;;;5127517;27;20116;-79
2022/01/29 09:52:38;;;;;;;11.25;6.22;;;9.10;99.90;;;;;;5150233;27;20043;-78
2022/01/29 09:55:05;;;;;;;8.32;5.85;;;9.20;99.90;;;;;;5132486;27;20054;-77
2022/01/29 09:57:31;;;;;;;13.25;6.03;;;9.20;99.90;;;;;;5127128;27;20050;-78
2022/01/29 09:59:58;;;;;;;14.75;6.82;;;9.20;99.90;;;;;;5127728;27;20493;-77
2022/01/29 10:02:24;;;;;;;11.05;5.50;;;9.20;99.90;;;;;;5147562;27;20126;-78
2022/01/29 10:04:51;;;;;;;12.63;6.07;;;9.30;99.90;;;;;;5132504;27;20043;-77
2022/01/29 10:07:18;;;;;;;14.95;5.60;;;9.30;99.90;;;;;;5129068;27;20069;-78
2022/01/29 10:09:44;;;;;;;7.70;5.70;;;9.30;99.90;;;;;;5128395;27;20094;-79
2022/01/29 10:12:11;;;;;;;8.48;5.45;;;9.40;99.90;;;;;;5130938;27;20038;-76
2022/01/29 10:14:37;;;;;;;11.35;5.80;;;9.40;99.90;;;;;;5126296;27;20059;-78
2022/01/29 10:17:04;;;;;;;12.30;5.82;;;9.40;99.90;;;;;;5126630;27;20051;-78
2022/01/29 10:19:30;;;;;;;7.85;5.18;;;9.40;99.90;;;;;;5118422;27;20046;-78
2022/01/29 10:21:57;;;;;;;12.27;5.13;;;9.50;99.90;;;;;;5119450;27;20058;-78
2022/01/29 10:24:23;;;;;;;14.85;5.70;;;9.50;99.90;;;;;;5118368;27;20047;-78
2022/01/29 10:26:50;;;;;;;9.00;5.00;;;9.50;99.90;;;;;;5130396;27;20046;-79
2022/01/29 10:29:17;;;;;;;10.82;4.82;;;9.50;99.90;;;;;;5117125;27;20058;-80
2022/01/29 10:31:43;;;;;;;12.32;5.88;;;9.60;99.90;;;;;;5139642;27;20051;-77
2022/01/29 10:34:10;;;;;;;8.88;4.45;;;9.60;99.90;;;;;;5140114;27;20057;-78
2022/01/29 10:36:36;;;;;;;4.88;4.32;;;9.60;99.90;;;;;;5127282;27;20054;-78
2022/01/29 10:39:04;;;;;;;5.72;5.07;;;9.70;99.90;;;;;;5140449;27;20043;-78
2022/01/29 10:41:31;;;;;;;4.85;4.22;;;9.70;99.90;;;;;;5148249;27;20517;-78
2022/01/29 10:43:58;;;;;;;9.70;5.00;;;9.70;99.90;;;;;;5130298;27;20058;-78
2022/01/29 10:46:24;;;;;;;10.18;4.85;;;9.70;99.90;;;;;;5145996;27;20050;-78
2022/01/29 10:48:51;;;;;;;8.82;4.63;;;9.70;99.90;;;;;;5146425;27;20046;-77
2022/01/29 10:51:17;;;;;;;12.77;5.00;;;9.70;99.90;;;;;;5141443;27;20057;-79
2022/01/29 10:53:44;;;;;;;12.88;4.88;;;9.70;99.90;;;;;;5127532;27;20057;-79
2022/01/29 10:56:11;;;;;;;14.45;4.82;;;9.70;99.90;;;;;;5123804;27;20042;-78
2022/01/29 10:58:37;;;;;;;6.88;3.80;;;9.70;99.90;;;;;;5147721;27;20047;-78
2022/01/29 11:01:04;;;;;;;9.20;3.97;;;9.70;99.90;;;;;;5127596;27;20054;-78
2022/01/29 11:03:30;;;;;;;12.27;3.38;;;9.60;99.90;;;;;;5125049;27;20053;-78
2022/01/29 11:05:58;;;;;;;11.23;4.05;;;9.70;99.90;;;;;;5125622;27;20057;-78
2022/01/29 11:08:25;;;;;;;9.30;3.85;;;9.70;99.90;;;;;;5120736;27;20069;-78
2022/01/29 11:10:51;;;;;;;6.38;3.17;;;9.70;99.90;;;;;;5125265;27;20083;-78
2022/01/29 11:13:18;;;;;;;12.75;3.75;;;9.60;99.90;;;;;;5125180;27;20050;-78
2022/01/29 11:15:44;;;;;;;11.98;4.07;;;9.70;99.90;;;;;;5114467;27;20050;-78
2022/01/29 11:18:11;;;;;;;8.32;4.20;;;9.70;99.90;;;;;;5125728;27;20137;-78
2022/01/29 11:20:38;;;;;;;9.93;3.55;;;9.70;99.90;;;;;;5127574;27;20046;-79
2022/01/29 11:23:04;;;;;;;7.10;3.45;;;9.70;99.90;;;;;;5118477;27;20047;-78
2022/01/29 11:25:31;;;;;;;11.02;3.45;;;9.70;99.90;;;;;;5124834;27;20046;-78
2022/01/29 11:27:58;;;;;;;8.85;2.50;;;9.70;99.90;;;;;;5124742;27;20055;-78
2022/01/29 11:30:25;;;;;;;4.57;2.60;;;9.80;99.90;;;;;;5121232;27;20069;-78
2022/01/29 11:32:51;;;;;;;7.65;3.20;;;9.80;99.90;;;;;;5130449;27;20522;-78
2022/01/29 11:35:18;;;;;;;7.85;3.25;;;9.80;99.90;;;;;;5117211;27;20478;-78
2022/01/29 11:37:44;;;;;;;6.07;2.92;;;9.80;99.90;;;;;;5113269;28;20054;-78
2022/01/29 11:40:11;;;;;;;11.73;3.10;;;9.80;99.90;;;;;;5121205;27;20042;-78
2022/01/29 11:42:37;;;;;;;11.57;3.28;;;9.90;99.90;;;;;;5142063;27;20055;-77
2022/01/29 11:45:08;;;;;;;9.52;3.33;;;9.90;99.90;;;;;;5125797;27;20046;-78
2022/01/29 11:47:35;;;;;;;;;;;9.90;99.90;;;;;;5115803;27;20050;-76
2022/01/29 11:50:02;;;;;;;10.38;4.60;;;9.90;99.90;;;;;;5130163;27;19922;-79
2022/01/29 11:52:28;;;;;;;8.68;3.92;;;9.90;99.90;;;;;;5127537;27;20486;-77
2022/01/29 11:54:55;;;;;;;5.95;2.97;;;9.90;99.90;;;;;;5120709;27;20425;-78
2022/01/29 11:57:22;;;;;;;8.52;3.88;;;9.80;99.90;;;;;;5120224;27;20059;-80
2022/01/29 11:59:49;;;;;;;11.68;3.58;;;9.90;99.90;;;;;;5122808;27;20054;-77
2022/01/29 12:02:15;;;;;;;9.45;3.42;;;9.90;99.90;;;;;;5137738;27;20047;-76
2022/01/29 12:04:42;;;;;;;9.57;3.20;;;9.90;99.90;;;;;;5133518;27;20051;-78
2022/01/29 12:07:12;;;;;;;4.78;3.10;;;9.90;99.90;;;;;;5123511;27;20058;-78
2022/01/29 12:09:38;;;;;;;8.13;3.35;;;10.00;99.90;;;;;;5127764;27;20412;-77
2022/01/29 12:12:05;;;;;;;9.02;3.10;;;9.90;99.90;;;;;;5121885;27;20051;-78
2022/01/29 12:14:31;;;;;;;7.68;3.20;;;10.00;99.90;;;;;;5124477;27;20050;-77
2022/01/29 12:16:58;;;;;;;7.32;3.40;;;10.00;99.90;;;;;;5125045;27;20046;-79
2022/01/29 12:19:24;;;;;;;6.78;3.03;;;10.10;99.90;;;;;;5131948;27;20043;-79
2022/01/29 12:21:51;;;;;;;5.03;2.97;;;10.10;99.90;;;;;;5132800;27;20063;-79
2022/01/29 12:24:17;;;;;;;9.82;3.38;;;10.10;99.90;;;;;;5125727;27;20035;-79
2022/01/29 12:26:44;;;;;;;8.27;2.65;;;10.10;99.90;;;;;;5130227;27;20065;-78
2022/01/29 12:29:11;;;;;;;5.88;2.25;;;10.20;99.90;;;;;;5128025;27;20054;-77
2022/01/29 12:31:37;;;;;;;4.32;2.42;;;10.20;99.90;;;;;;5130294;27;20050;-78
2022/01/29 12:34:04;;;;;;;9.80;2.85;;;10.20;99.90;;;;;;5129886;27;20049;-78
2022/01/29 12:36:30;;;;;;;7.57;2.53;;;10.30;99.90;;;;;;5128270;27;20042;-78
2022/01/29 12:38:57;;;;;;;9.43;2.80;;;10.30;99.90;;;;;;5128315;27;20062;-78
2022/01/29 12:41:27;;;;;;;6.45;2.53;;;10.20;99.90;;;;;;5131205;27;20048;-79
2022/01/29 12:44:00;;;;;;;8.23;3.13;;;10.30;99.90;;;;;;5128098;27;20050;-78
2022/01/29 12:46:27;;;;;;;6.90;2.60;;;10.30;99.90;;;;;;5130310;27;20146;-79
2022/01/29 12:48:53;;;;;;;8.00;2.50;;;10.30;99.90;;;;;;5127208;27;20043;-78